»·PEaware :: N5627E KLAX-KSFO

N5627E :: KLAX-KSFO

FLIGHT INFORMATION

Flight Status: Arrived
Operator: Privately registered:
United States
More flights under this callsign
Pilot: Jeb B. (17306)
Aircraft: Unknown
(E50P)
More flights by this aircraft type
Origin: KLAX Los Angeles Intl
United States
Destination: KSFO San Francisco Intl
United States
More flights between these airports :: More routes between these airports
Route: +
File this flight plan on PilotEdge
Remarks:
Altitude:
(Current/Filed)
23,000ft
Speed:
(Current/Filed)
275kts
Departed: 01-Jan-18 04:58 PM
Arrived: 01-Jan-18 05:46 PM
Distance/Time
Traveled:
294nm/0:48
Distance/Time
To Go:
Arrived

Flight Plot

Page will automatically refresh every two minutes.


Map Options




Map Legend


Flown Route
Filed Route
Departure Airport
Arrival Airport
Navaid (VOR, NDB)
Fix

Horizontal Profiles

Position Reports

Time Latitude Longitude Heading Altitude Ground
Speed
01-Jan-18 16:17 33.933721 -118.394285 89 107ft 0kts
01-Jan-18 16:18 33.933721 -118.394285 89 107ft 0kts
01-Jan-18 16:19 33.933721 -118.394285 89 107ft 0kts
01-Jan-18 16:20 33.933721 -118.394285 89 107ft 0kts
01-Jan-18 16:21 33.933721 -118.394285 89 107ft 0kts
01-Jan-18 16:22 33.933721 -118.394285 89 107ft 0kts
01-Jan-18 16:23 33.933721 -118.394285 89 107ft 0kts
01-Jan-18 16:24 33.933721 -118.394285 89 107ft 0kts
01-Jan-18 16:25 33.933721 -118.394285 89 107ft 0kts
01-Jan-18 16:26 33.933721 -118.394285 89 107ft 0kts
01-Jan-18 16:27 33.933721 -118.394285 89 107ft 0kts
01-Jan-18 16:28 33.933721 -118.394285 89 107ft 0kts
01-Jan-18 16:29 33.933721 -118.394285 89 107ft 0kts
01-Jan-18 16:30 33.933721 -118.394285 89 107ft 0kts
01-Jan-18 16:31 33.933721 -118.394285 89 107ft 0kts
01-Jan-18 16:32 33.933721 -118.394285 89 107ft 0kts
01-Jan-18 16:33 33.933721 -118.394285 89 107ft 0kts
01-Jan-18 16:34 33.933721 -118.394285 89 107ft 0kts
01-Jan-18 16:35 33.933721 -118.394285 89 107ft 0kts
01-Jan-18 16:36 33.933721 -118.394285 89 107ft 0kts
01-Jan-18 16:37 33.933721 -118.394285 89 107ft 0kts
01-Jan-18 16:38 33.933721 -118.394285 89 107ft 0kts
01-Jan-18 16:39 33.933721 -118.394285 89 107ft 0kts
01-Jan-18 16:40 33.933721 -118.394285 89 107ft 0kts
01-Jan-18 16:41 33.933721 -118.394285 89 107ft 0kts
01-Jan-18 16:42 33.933721 -118.394285 89 107ft 0kts
01-Jan-18 16:43 33.933721 -118.394285 89 107ft 0kts
01-Jan-18 16:44 33.933721 -118.394285 89 107ft 0kts
01-Jan-18 16:45 33.933721 -118.394285 89 107ft 0kts
01-Jan-18 16:46 33.933721 -118.394285 89 107ft 0kts
01-Jan-18 16:47 33.933721 -118.394285 89 107ft 0kts
01-Jan-18 16:48 33.933721 -118.394285 89 107ft 0kts
01-Jan-18 16:49 33.933721 -118.394285 89 107ft 0kts
01-Jan-18 16:50 33.933721 -118.394285 89 107ft 0kts
01-Jan-18 16:51 33.933721 -118.394285 89 107ft 0kts
01-Jan-18 16:52 33.933721 -118.394285 89 107ft 0kts
01-Jan-18 16:53 33.933721 -118.394285 89 107ft 0kts
01-Jan-18 16:54 33.933721 -118.394285 89 107ft 0kts
01-Jan-18 16:55 33.933721 -118.394285 89 107ft 0kts
01-Jan-18 16:56 33.934008 -118.394111 8 106ft 8kts
01-Jan-18 16:57 33.935158 -118.392071 88 105ft 9kts
01-Jan-18 16:58 33.935543 -118.390676 319 105ft 5kts
01-Jan-18 16:59 33.935639 -118.390766 323 105ft 0kts
01-Jan-18 17:00 33.935639 -118.390766 323 105ft 0kts
01-Jan-18 17:01 33.935639 -118.390766 323 105ft 0kts
01-Jan-18 17:02 33.935639 -118.390766 323 105ft 0kts
01-Jan-18 17:03 33.935819 -118.390930 322 105ft 13kts
01-Jan-18 17:04 33.931999 -118.431557 261 598ft 271kts
01-Jan-18 17:05 33.928088 -118.518070 267 2051ft 215kts
01-Jan-18 17:06 33.925091 -118.602197 267 4294ft 297kts
01-Jan-18 17:07 33.920613 -118.703407 266 6689ft 331kts
01-Jan-18 17:08 33.915000 -118.816392 266 9168ft 346kts
01-Jan-18 17:09 33.908989 -118.931981 266 11636ft 350kts
01-Jan-18 17:10 33.913003 -119.046422 296 14075ft 354kts
01-Jan-18 17:11 33.977168 -119.127576 330 16433ft 329kts
01-Jan-18 17:12 34.058523 -119.191545 324 16527ft 367kts
01-Jan-18 17:13 34.145835 -119.265440 324 16485ft 448kts
01-Jan-18 17:14 34.253632 -119.356978 324 16481ft 497kts
01-Jan-18 17:15 34.368178 -119.454573 324 16498ft 510kts
01-Jan-18 17:16 34.482331 -119.552187 324 16498ft 514kts
01-Jan-18 17:17 34.596256 -119.649927 324 16499ft 500kts
01-Jan-18 17:18 34.709063 -119.747052 323 16499ft 511kts
01-Jan-18 17:19 34.824023 -119.846363 323 16493ft 514kts
01-Jan-18 17:20 34.938367 -119.945336 323 16491ft 512kts
01-Jan-18 17:21 35.051552 -120.043990 323 16491ft 498kts
01-Jan-18 17:22 35.156871 -120.135878 323 16502ft 493kts
01-Jan-18 17:23 35.266988 -120.232312 323 16498ft 492kts
01-Jan-18 17:24 35.376653 -120.328681 323 16480ft 492kts
01-Jan-18 17:25 35.486585 -120.425615 323 16491ft 492kts
01-Jan-18 17:26 35.595955 -120.522384 323 16495ft 492kts
01-Jan-18 17:27 35.705815 -120.619922 323 16494ft 492kts
01-Jan-18 17:28 35.814043 -120.716345 322 16497ft 492kts
01-Jan-18 17:29 35.924003 -120.814649 322 16497ft 492kts
01-Jan-18 17:30 36.033741 -120.913101 322 16497ft 492kts
01-Jan-18 17:31 36.138430 -121.007338 322 16494ft 493kts
01-Jan-18 17:32 36.248659 -121.106939 322 16490ft 497kts
01-Jan-18 17:33 36.359257 -121.207232 322 16486ft 497kts
01-Jan-18 17:34 36.457518 -121.296534 322 16369ft 402kts
01-Jan-18 17:35 36.542271 -121.373914 322 15601ft 374kts
01-Jan-18 17:36 36.627384 -121.451850 322 14860ft 431kts
01-Jan-18 17:37 36.728719 -121.544820 323 14116ft 475kts
01-Jan-18 17:38 36.827549 -121.635794 323 13344ft 417kts
01-Jan-18 17:39 36.914528 -121.716148 322 12601ft 398kts
01-Jan-18 17:40 37.001670 -121.796880 322 11844ft 393kts
01-Jan-18 17:41 37.087304 -121.876442 322 11093ft 390kts
01-Jan-18 17:42 37.167877 -121.951509 323 10482ft 386kts
01-Jan-18 17:43 37.250038 -122.028235 322 10489ft 375kts
01-Jan-18 17:44 37.330163 -122.103311 322 10497ft 372kts
01-Jan-18 17:45 37.412506 -122.180665 322 9645ft 385kts
01-Jan-18 17:46 37.488157 -122.250952 329 8575ft 271kts
01-Jan-18 17:47 37.547120 -122.290340 308 5775ft 250kts
01-Jan-18 17:48 37.526512 -122.303988 82 2676ft 246kts
01-Jan-18 17:49 37.568551 -122.280973 317 1142ft 172kts
01-Jan-18 17:50 37.596989 -122.324138 299 749ft 131kts
01-Jan-18 17:51 37.610119 -122.354851 300 113ft 91kts
01-Jan-18 17:52 37.618078 -122.373537 298 14ft 25kts
01-Jan-18 17:53 37.618911 -122.377287 265 24ft 0kts
01-Jan-18 17:54 37.618936 -122.378507 268 27ft 6kts
01-Jan-18 17:55 37.620412 -122.382075 298 30ft 17kts
01-Jan-18 17:56 37.623828 -122.381930 26 25ft 18kts
01-Jan-18 17:57 37.626163 -122.383050 359 18ft 9kts
01-Jan-18 17:58 37.626894 -122.382676 20 16ft 0kts
01-Jan-18 17:59 37.627683 -122.383156 300 15ft 0kts
01-Jan-18 18:06 37.627649 -122.383078 300 15ft 0kts
01-Jan-18 18:07 37.627649 -122.383078 300 15ft 0kts

Navigation Log

Ident Type
1. KLAX Airport
2. KSFO Airport